Wetterdaten: aktuell Samstag, 19.10.2019 08:13
Datum Zeit Temp. A. Feuchte A. Luftdruck Regen Wind Richtung Richtung Taupunkt Windchill Windben
19.10.2019 08:13 8,6 C 95 % 1012,9 hPa 0,0 l/m 0,0 km/h (0 Bft) N 0 7,8 C 8,6 C 0,0 km/h (0 Bft)
19.10.2019 07:13 7,6 C 93 % 1013,4 hPa 0,0 l/m 0,0 km/h (0 Bft) N 0 6,5 C 7,6 C 0,0 km/h (0 Bft)
19.10.2019 06:13 9,1 C 93 % 1013,5 hPa 0,0 l/m 0,0 km/h (0 Bft) N 0 8,0 C 9,1 C 0,0 km/h (0 Bft)
19.10.2019 05:13 10,3 C 94 % 1014,4 hPa 0,0 l/m 1,6 km/h (1 Bft) W-SW 247 9,4 C 10,3 C 3,2 km/h (1 Bft)
19.10.2019 04:13 9,1 C 95 % 1014,5 hPa 0,0 l/m 0,0 km/h (0 Bft) N 0 8,3 C 9,1 C 0,0 km/h (0 Bft)
19.10.2019 03:13 9,2 C 95 % 1014,5 hPa 0,0 l/m 3,2 km/h (1 Bft) SO 135 8,4 C 9,2 C 4,8 km/h (1 Bft)
19.10.2019 02:13 9,2 C 95 % 1014,9 hPa 0,0 l/m 0,0 km/h (0 Bft) N 0 8,4 C 9,2 C 0,0 km/h (0 Bft)
19.10.2019 01:13 8,5 C 94 % 1014,9 hPa 0,0 l/m 0,0 km/h (0 Bft) N 0 7,6 C 8,5 C 0,0 km/h (0 Bft)
19.10.2019 00:13 8,7 C 94 % 1014,9 hPa 0,0 l/m 0,0 km/h (0 Bft) N 0 7,8 C 8,7 C 0,0 km/h (0 Bft)
18.10.2019 23:13 8,6 C 94 % 1015,1 hPa 0,0 l/m 0,0 km/h (0 Bft) N 0 7,7 C 8,6 C 0,0 km/h (0 Bft)
18.10.2019 22:13 9,3 C 93 % 1015,3 hPa 0,0 l/m 0,0 km/h (0 Bft) N 0 8,2 C 9,3 C 0,0 km/h (0 Bft)
18.10.2019 21:13 10,6 C 93 % 1015,6 hPa 0,0 l/m 0,0 km/h (0 Bft) N 0 9,5 C 10,6 C 0,0 km/h (0 Bft)
18.10.2019 20:13 12,3 C 92 % 1015,7 hPa 0,0 l/m 0,0 km/h (0 Bft) N 0 11,0 C 12,3 C 0,0 km/h (0 Bft)
18.10.2019 19:13 13,4 C 90 % 1015,7 hPa 0,4 l/m 0,0 km/h (0 Bft) N 0 11,8 C 13,4 C 0,0 km/h (0 Bft)
18.10.2019 18:13 14,6 C 82 % 1015,0 hPa 0,0 l/m 0,0 km/h (0 Bft) N 0 11,6 C 14,6 C 0,0 km/h (0 Bft)
18.10.2019 17:13 15,3 C 78 % 1014,3 hPa 0,0 l/m 0,0 km/h (0 Bft) N 0 11,5 C 15,3 C 0,0 km/h (0 Bft)
18.10.2019 16:13 17,7 C 71 % 1014,0 hPa 0,0 l/m 0,0 km/h (0 Bft) N 0 12,4 C 17,7 C 0,0 km/h (0 Bft)
18.10.2019 15:13 18,6 C 64 % 1013,5 hPa 0,0 l/m 3,2 km/h (1 Bft) NO 45 11,7 C 18,6 C 4,8 km/h (1 Bft)
18.10.2019 14:13 18,3 C 62 % 1014,0 hPa 0,0 l/m 0,0 km/h (0 Bft) N 0 10,9 C 18,3 C 0,0 km/h (0 Bft)
18.10.2019 13:13 18,4 C 60 % 1014,4 hPa 0,0 l/m 1,6 km/h (1 Bft) S-SO 157 10,5 C 18,4 C 4,8 km/h (1 Bft)
18.10.2019 12:13 17,7 C 64 % 1014,9 hPa 0,0 l/m 3,2 km/h (1 Bft) SO 135 10,8 C 17,7 C 4,8 km/h (1 Bft)
18.10.2019 11:13 15,9 C 69 % 1016,1 hPa 0,0 l/m 6,4 km/h (2 Bft) S 180 10,2 C 15,9 C 9,7 km/h (2 Bft)
18.10.2019 10:13 13,6 C 73 % 1016,5 hPa 0,0 l/m 4,8 km/h (1 Bft) SO 135 8,9 C 13,6 C 6,4 km/h (2 Bft)
18.10.2019 09:13 10,8 C 84 % 1017,1 hPa 0,0 l/m 4,8 km/h (1 Bft) S-SW 202 8,2 C 10,8 C 6,4 km/h (2 Bft)
18.10.2019 09:00 10,9 C 86 % 1017,1 hPa 0,0 l/m 8,0 km/h (2 Bft) S 180 8,7 C 9,8 C 11,3 km/h (2 Bft)
_ Min-Zeit 07:21 13:36 08:10 - 09:15 - - 07:21 07:21 09:25
Minimum _ 6,4 C 55 % 1012,9 hPa - 0,0 km/h (0 Bft) - - 5,4 C 6,4 C 0,0 km/h (0 Bft)
_ Max-Zeit 15:29 00:09 09:01 18:29 11:02 - - 16:06 15:29 09:09
Maximum _ 19,1 C 95 % 1017,2 hPa 0,2 l/m 11,3 km/h
SO (2 Bft)
- - 12,9 C 19,1 C 17,7 km/h
S-SW (3 Bft)
Durchschnitt _ 12,2 C 84 % 1015,0 hPa #0,4 l/m 1,6 km/h (1 Bft) S-SW - 9,4 C 12,1 C 2,6 km/h (1 Bft)